sensor_id;sensor_type;location;lat;lon;timestamp;P1;durP1;ratioP1;P2;durP2;ratioP2
36211;SDS011;22247;48.586;13.492;2023-08-24T05:22:08;37.95;;;15.35;;
36211;SDS011;22247;48.586;13.492;2023-08-24T05:24:33;27.92;;;15.57;;
36211;SDS011;22247;48.586;13.492;2023-08-24T05:26:59;25.60;;;15.98;;
36211;SDS011;22247;48.586;13.492;2023-08-24T05:29:26;29.52;;;16.20;;
36211;SDS011;22247;48.586;13.492;2023-08-24T05:31:51;25.13;;;16.30;;
36211;SDS011;22247;48.586;13.492;2023-08-24T05:34:16;21.00;;;14.50;;
36211;SDS011;22247;48.586;13.492;2023-08-24T05:36:40;60.35;;;16.05;;
36211;SDS011;22247;48.586;13.492;2023-08-24T05:39:05;27.08;;;16.25;;
36211;SDS011;22247;48.586;13.492;2023-08-24T05:41:29;59.45;;;14.45;;
36211;SDS011;22247;48.586;13.492;2023-08-24T05:43:59;21.50;;;13.73;;
36211;SDS011;22247;48.586;13.492;2023-08-24T05:46:23;19.25;;;13.13;;
36211;SDS011;22247;48.586;13.492;2023-08-24T05:48:51;20.63;;;12.80;;
36211;SDS011;22247;48.586;13.492;2023-08-24T05:51:16;20.42;;;14.05;;
36211;SDS011;22247;48.586;13.492;2023-08-24T05:53:41;20.45;;;13.82;;
36211;SDS011;22247;48.586;13.492;2023-08-24T05:56:05;20.48;;;14.25;;
36211;SDS011;22247;48.586;13.492;2023-08-24T05:58:30;21.42;;;13.73;;
36211;SDS011;22247;48.586;13.492;2023-08-24T06:00:58;19.67;;;13.68;;
36211;SDS011;22247;48.586;13.492;2023-08-24T06:03:26;17.45;;;12.50;;
36211;SDS011;22247;48.586;13.492;2023-08-24T06:05:51;18.35;;;13.00;;
36211;SDS011;22247;48.586;13.492;2023-08-24T06:08:16;26.48;;;13.80;;
36211;SDS011;22247;48.586;13.492;2023-08-24T06:10:41;22.02;;;13.10;;
36211;SDS011;22247;48.586;13.492;2023-08-24T06:13:05;23.42;;;13.20;;
36211;SDS011;22247;48.586;13.492;2023-08-24T06:15:32;21.08;;;11.90;;
36211;SDS011;22247;48.586;13.492;2023-08-24T06:17:59;24.13;;;12.38;;
36211;SDS011;22247;48.586;13.492;2023-08-24T06:20:24;19.25;;;12.18;;
36211;SDS011;22247;48.586;13.492;2023-08-24T06:22:52;25.27;;;12.93;;
36211;SDS011;22247;48.586;13.492;2023-08-24T06:25:17;15.75;;;10.98;;
36211;SDS011;22247;48.586;13.492;2023-08-24T06:27:43;18.48;;;11.50;;
36211;SDS011;22247;48.586;13.492;2023-08-24T06:30:08;16.55;;;10.95;;
36211;SDS011;22247;48.586;13.492;2023-08-24T06:32:40;16.70;;;10.80;;
36211;SDS011;22247;48.586;13.492;2023-08-24T06:35:06;16.05;;;11.23;;
36211;SDS011;22247;48.586;13.492;2023-08-24T06:37:31;13.45;;;10.20;;
36211;SDS011;22247;48.586;13.492;2023-08-24T06:39:56;16.60;;;10.35;;
36211;SDS011;22247;48.586;13.492;2023-08-24T06:42:20;18.70;;;10.40;;
36211;SDS011;22247;48.586;13.492;2023-08-24T06:44:45;14.23;;;9.98;;
36211;SDS011;22247;48.586;13.492;2023-08-24T06:47:13;17.98;;;9.93;;
36211;SDS011;22247;48.586;13.492;2023-08-24T06:49:38;14.60;;;9.35;;
36211;SDS011;22247;48.586;13.492;2023-08-24T06:52:03;14.93;;;9.55;;
36211;SDS011;22247;48.586;13.492;2023-08-24T06:54:27;12.52;;;8.40;;
36211;SDS011;22247;48.586;13.492;2023-08-24T06:56:52;16.25;;;9.13;;
36211;SDS011;22247;48.586;13.492;2023-08-24T06:59:19;17.08;;;8.40;;
36211;SDS011;22247;48.586;13.492;2023-08-24T07:01:43;11.52;;;8.77;;
36211;SDS011;22247;48.586;13.492;2023-08-24T07:04:08;15.65;;;8.27;;
36211;SDS011;22247;48.586;13.492;2023-08-24T07:06:35;14.32;;;8.98;;
36211;SDS011;22247;48.586;13.492;2023-08-24T07:09:00;14.88;;;8.20;;
36211;SDS011;22247;48.586;13.492;2023-08-24T07:11:45;16.98;;;8.85;;
36211;SDS011;22247;48.586;13.492;2023-08-24T07:14:09;19.55;;;8.55;;
36211;SDS011;22247;48.586;13.492;2023-08-24T07:16:36;14.07;;;7.75;;
36211;SDS011;22247;48.586;13.492;2023-08-24T07:19:03;14.00;;;7.45;;
36211;SDS011;22247;48.586;13.492;2023-08-24T07:21:29;11.90;;;7.55;;
36211;SDS011;22247;48.586;13.492;2023-08-24T07:23:54;15.32;;;7.18;;
36211;SDS011;22247;48.586;13.492;2023-08-24T07:26:19;13.98;;;6.60;;
36211;SDS011;22247;48.586;13.492;2023-08-24T07:28:43;11.07;;;6.82;;
36211;SDS011;22247;48.586;13.492;2023-08-24T07:31:08;8.65;;;6.38;;
36211;SDS011;22247;48.586;13.492;2023-08-24T07:33:37;11.98;;;7.20;;
36211;SDS011;22247;48.586;13.492;2023-08-24T07:36:05;17.73;;;7.80;;
36211;SDS011;22247;48.586;13.492;2023-08-24T07:38:30;10.25;;;7.60;;
36211;SDS011;22247;48.586;13.492;2023-08-24T07:40:55;12.43;;;7.20;;
36211;SDS011;22247;48.586;13.492;2023-08-24T07:43:19;15.82;;;8.30;;
36211;SDS011;22247;48.586;13.492;2023-08-24T07:45:44;10.20;;;7.25;;
36211;SDS011;22247;48.586;13.492;2023-08-24T07:48:10;13.93;;;7.75;;
36211;SDS011;22247;48.586;13.492;2023-08-24T07:50:38;12.68;;;6.85;;
36211;SDS011;22247;48.586;13.492;2023-08-24T07:53:05;10.50;;;6.97;;
36211;SDS011;22247;48.586;13.492;2023-08-24T07:55:29;11.80;;;6.28;;
36211;SDS011;22247;48.586;13.492;2023-08-24T07:57:57;17.17;;;6.75;;
36211;SDS011;22247;48.586;13.492;2023-08-24T08:00:21;8.95;;;5.80;;
36211;SDS011;22247;48.586;13.492;2023-08-24T08:02:46;13.68;;;6.72;;
36211;SDS011;22247;48.586;13.492;2023-08-24T08:05:14;6.78;;;5.55;;
36211;SDS011;22247;48.586;13.492;2023-08-24T08:07:39;9.60;;;6.45;;
36211;SDS011;22247;48.586;13.492;2023-08-24T08:10:03;9.15;;;5.90;;
36211;SDS011;22247;48.586;13.492;2023-08-24T08:12:29;8.95;;;5.68;;
36211;SDS011;22247;48.586;13.492;2023-08-24T08:17:23;11.10;;;5.38;;
36211;SDS011;22247;48.586;13.492;2023-08-24T08:19:47;6.03;;;4.75;;
36211;SDS011;22247;48.586;13.492;2023-08-24T08:22:15;10.25;;;5.30;;
36211;SDS011;22247;48.586;13.492;2023-08-24T08:24:42;14.43;;;6.00;;
36211;SDS011;22247;48.586;13.492;2023-08-24T13:39:53;11.77;;;4.97;;
36211;SDS011;22247;48.586;13.492;2023-08-24T13:42:18;5.30;;;4.15;;
36211;SDS011;22247;48.586;13.492;2023-08-24T13:44:43;5.97;;;4.70;;
36211;SDS011;22247;48.586;13.492;2023-08-24T13:47:08;7.20;;;4.30;;
36211;SDS011;22247;48.586;13.492;2023-08-24T13:49:33;9.68;;;4.90;;
36211;SDS011;22247;48.586;13.492;2023-08-24T13:51:58;6.55;;;4.20;;
36211;SDS011;22247;48.586;13.492;2023-08-24T14:06:31;7.95;;;4.45;;
36211;SDS011;22247;48.586;13.492;2023-08-24T14:08:58;6.75;;;4.60;;
36211;SDS011;22247;48.586;13.492;2023-08-24T14:11:23;12.27;;;4.53;;
36211;SDS011;22247;48.586;13.492;2023-08-24T14:13:48;7.30;;;4.93;;
36211;SDS011;22247;48.586;13.492;2023-08-24T14:16:13;6.88;;;4.72;;
36211;SDS011;22247;48.586;13.492;2023-08-24T14:18:38;9.35;;;4.55;;
36211;SDS011;22247;48.586;13.492;2023-08-24T14:21:05;9.98;;;4.90;;
36211;SDS011;22247;48.586;13.492;2023-08-24T14:23:33;7.45;;;4.82;;
36211;SDS011;22247;48.586;13.492;2023-08-24T14:25:58;8.48;;;5.00;;
36211;SDS011;22247;48.586;13.492;2023-08-24T14:28:26;10.10;;;4.75;;
36211;SDS011;22247;48.586;13.492;2023-08-24T14:31:08;8.02;;;4.95;;
36211;SDS011;22247;48.586;13.492;2023-08-24T14:33:33;10.60;;;4.72;;
36211;SDS011;22247;48.586;13.492;2023-08-24T14:35:58;15.68;;;4.82;;
36211;SDS011;22247;48.586;13.492;2023-08-24T14:38:25;6.05;;;4.38;;
36211;SDS011;22247;48.586;13.492;2023-08-24T14:40:50;7.68;;;4.15;;
36211;SDS011;22247;48.586;13.492;2023-08-24T14:43:15;8.73;;;3.88;;
36211;SDS011;22247;48.586;13.492;2023-08-24T14:45:40;10.32;;;4.57;;
36211;SDS011;22247;48.586;13.492;2023-08-24T14:48:08;6.88;;;3.78;;
36211;SDS011;22247;48.586;13.492;2023-08-24T14:50:33;10.23;;;3.72;;
36211;SDS011;22247;48.586;13.492;2023-08-24T14:52:57;11.05;;;3.65;;
36211;SDS011;22247;48.586;13.492;2023-08-24T14:55:25;8.90;;;3.80;;
36211;SDS011;22247;48.586;13.492;2023-08-24T14:57:57;5.85;;;3.75;;
36211;SDS011;22247;48.586;13.492;2023-08-24T15:00:29;7.75;;;4.03;;
36211;SDS011;22247;48.586;13.492;2023-08-24T15:02:56;13.02;;;3.67;;
36211;SDS011;22247;48.586;13.492;2023-08-24T15:05:21;7.60;;;3.85;;
36211;SDS011;22247;48.586;13.492;2023-08-24T15:07:48;8.45;;;3.78;;
36211;SDS011;22247;48.586;13.492;2023-08-24T15:10:14;7.28;;;3.42;;
36211;SDS011;22247;48.586;13.492;2023-08-24T15:12:38;12.07;;;4.07;;
36211;SDS011;22247;48.586;13.492;2023-08-24T15:15:03;9.68;;;3.40;;
36211;SDS011;22247;48.586;13.492;2023-08-24T15:17:31;5.80;;;3.53;;
36211;SDS011;22247;48.586;13.492;2023-08-24T15:19:59;7.25;;;3.70;;
36211;SDS011;22247;48.586;13.492;2023-08-24T15:22:23;14.60;;;4.13;;
36211;SDS011;22247;48.586;13.492;2023-08-24T15:24:52;8.82;;;3.83;;
36211;SDS011;22247;48.586;13.492;2023-08-24T15:27:19;9.38;;;4.05;;
36211;SDS011;22247;48.586;13.492;2023-08-24T15:29:46;14.65;;;4.20;;
36211;SDS011;22247;48.586;13.492;2023-08-24T15:32:11;10.75;;;3.60;;
36211;SDS011;22247;48.586;13.492;2023-08-24T15:34:36;8.30;;;3.50;;
36211;SDS011;22247;48.586;13.492;2023-08-24T15:37:04;16.00;;;3.88;;
36211;SDS011;22247;48.586;13.492;2023-08-24T15:39:29;12.00;;;3.38;;
36211;SDS011;22247;48.586;13.492;2023-08-24T15:42:00;9.45;;;3.55;;
36211;SDS011;22247;48.586;13.492;2023-08-24T15:44:25;11.07;;;3.45;;
36211;SDS011;22247;48.586;13.492;2023-08-24T15:46:52;7.72;;;2.97;;
36211;SDS011;22247;48.586;13.492;2023-08-24T15:49:19;7.55;;;3.75;;
36211;SDS011;22247;48.586;13.492;2023-08-24T15:51:49;10.45;;;3.67;;
36211;SDS011;22247;48.586;13.492;2023-08-24T15:54:14;12.77;;;3.67;;
36211;SDS011;22247;48.586;13.492;2023-08-24T15:56:39;7.18;;;3.72;;
36211;SDS011;22247;48.586;13.492;2023-08-24T15:59:06;7.97;;;3.58;;
36211;SDS011;22247;48.586;13.492;2023-08-24T16:01:31;7.88;;;3.03;;
36211;SDS011;22247;48.586;13.492;2023-08-24T16:03:56;13.52;;;3.72;;
36211;SDS011;22247;48.586;13.492;2023-08-24T16:06:23;14.20;;;4.05;;
